Time;durP1;ratioP1;P1;durP2;ratioP2;P2;SDS_P1;SDS_P2;PMS_P1;PMS_P2;Temp;Humidity;BMP_temperature;BMP_pressure;BME280_temperature;BME280_humidity;BME280_pressure;Samples;Min_cycle;Max_cycle;Signal;HPM_P1;HPM_P2
2021/01/18 00:00:57;;;;;;;28.80;17.75;;;;;;;-3.48;49.85;101771.91;1815243;79;21270;-45
2021/01/18 00:03:26;;;;;;;21.80;14.18;;;;;;;-3.48;50.09;101774.45;1809050;79;21148;-45
2021/01/18 00:05:54;;;;;;;28.07;15.75;;;;;;;-3.49;50.07;101781.62;1809380;79;21711;-45
2021/01/18 00:08:23;;;;;;;27.37;15.35;;;;;;;-3.48;50.26;101789.71;1815972;79;21178;-46
2021/01/18 00:10:51;;;;;;;25.55;14.98;;;;;;;-3.49;50.25;101787.98;1810473;78;21565;-45
2021/01/18 00:13:20;;;;;;;28.38;16.10;;;;;;;-3.47;50.46;101795.30;1809648;79;21136;-46
2021/01/18 00:15:49;;;;;;;28.35;15.88;;;;;;;-3.45;50.59;101801.33;1811132;79;21180;-45
2021/01/18 00:18:17;;;;;;;27.02;15.98;;;;;;;-3.43;50.63;101806.48;1814857;79;21124;-45
2021/01/18 00:20:48;;;;;;;26.23;15.40;;;;;;;-3.42;50.60;101795.53;1816182;79;21160;-45
2021/01/18 00:23:16;;;;;;;27.40;16.67;;;;;;;-3.42;50.49;101786.20;1811175;79;21129;-45
2021/01/18 00:25:46;;;;;;;28.77;16.70;;;;;;;-3.42;50.42;101778.56;1814783;79;21136;-45
2021/01/18 00:28:14;;;;;;;28.45;16.75;;;;;;;-3.41;50.31;101778.18;1814774;79;21140;-45
2021/01/18 00:30:42;;;;;;;25.15;14.60;;;;;;;-3.41;50.36;101781.61;1809492;79;21564;-45
2021/01/18 00:33:10;;;;;;;28.57;15.50;;;;;;;-3.42;50.40;101770.94;1817148;79;21132;-45
2021/01/18 00:35:38;;;;;;;26.20;16.15;;;;;;;-3.42;50.48;101773.48;1813423;79;21203;-45
2021/01/18 00:38:07;;;;;;;24.37;14.25;;;;;;;-3.45;50.49;101764.44;1810118;79;21156;-45
2021/01/18 00:40:35;;;;;;;21.57;13.65;;;;;;;-3.46;50.53;101756.31;1809458;79;21286;-45
2021/01/18 00:43:03;;;;;;;28.85;14.87;;;;;;;-3.46;50.37;101753.77;1810703;79;21263;-45
2021/01/18 00:45:33;;;;;;;24.98;14.47;;;;;;;-3.45;50.14;101758.08;1816205;79;21141;-45
2021/01/18 00:48:01;;;;;;;25.85;14.45;;;;;;;-3.44;50.01;101759.81;1809742;79;21561;-45
2021/01/18 00:50:30;;;;;;;23.20;13.55;;;;;;;-3.43;50.08;101757.76;1812195;79;21160;-45
2021/01/18 00:52:59;;;;;;;23.15;13.43;;;;;;;-3.43;49.93;101756.88;1805703;79;21186;-45
2021/01/18 00:55:28;;;;;;;23.57;13.43;;;;;;;-3.43;49.73;101753.94;1814632;79;21602;-45
2021/01/18 00:58:15;;;;;;;22.48;13.03;;;;;;;-3.41;49.70;101758.70;1805469;79;21208;-45
2021/01/18 01:00:49;;;;;;;22.77;13.25;;;;;;;-3.38;49.54;101758.84;1811489;79;21290;-44
2021/01/18 01:03:17;;;;;;;23.75;13.85;;;;;;;-3.36;49.53;101754.70;1810283;79;21152;-45
2021/01/18 01:05:45;;;;;;;26.33;14.18;;;;;;;-3.33;49.45;101753.59;1809781;79;21160;-45
2021/01/18 01:08:13;;;;;;;24.00;14.38;;;;;;;-3.33;49.46;101751.05;1811043;79;21128;-44
2021/01/18 01:10:42;;;;;;;25.82;15.05;;;;;;;-3.33;49.50;101748.50;1813969;79;21294;-45
2021/01/18 01:13:10;;;;;;;23.87;14.23;;;;;;;-3.34;49.68;101749.28;1807604;79;21128;-44
2021/01/18 01:15:38;;;;;;;23.55;14.45;;;;;;;-3.33;49.44;101748.50;1813332;79;21156;-44
2021/01/18 01:18:07;;;;;;;23.62;14.03;;;;;;;-3.32;49.26;101752.78;1805868;78;21148;-44
2021/01/18 01:20:35;;;;;;;23.18;14.35;;;;;;;-3.31;49.10;101753.66;1811213;79;21188;-44
2021/01/18 01:23:04;;;;;;;25.23;15.05;;;;;;;-3.30;48.91;101755.42;1810905;79;21132;-45
2021/01/18 01:25:33;;;;;;;25.95;15.85;;;;;;;-3.31;48.86;101752.00;1811457;79;21172;-44
2021/01/18 01:28:02;;;;;;;26.15;14.90;;;;;;;-3.31;48.71;101745.64;1810787;79;21168;-44
2021/01/18 01:30:30;;;;;;;25.15;15.70;;;;;;;-3.31;49.11;101748.18;1810772;79;21159;-44
2021/01/18 01:32:59;;;;;;;24.63;15.43;;;;;;;-3.30;49.26;101746.52;1810658;79;21140;-45
2021/01/18 01:35:28;;;;;;;25.25;14.78;;;;;;;-3.28;49.16;101749.13;1809376;79;21508;-44
2021/01/18 01:37:56;;;;;;;25.80;15.08;;;;;;;-3.27;49.09;101745.77;1812662;79;21274;-44
2021/01/18 01:40:25;;;;;;;25.43;15.68;;;;;;;-3.25;49.26;101741.23;1813460;79;21279;-46
2021/01/18 01:42:53;;;;;;;25.97;15.35;;;;;;;-3.25;49.24;101728.52;1808785;79;21165;-44
2021/01/18 01:45:21;;;;;;;23.92;15.18;;;;;;;-3.24;49.00;101729.39;1808692;79;21154;-45
2021/01/18 01:47:56;;;;;;;24.98;15.80;;;;;;;-3.25;48.91;101731.45;1808043;79;21274;-45
2021/01/18 01:50:32;;;;;;;27.98;16.07;;;;;;;-3.26;48.81;101719.54;1813792;79;21164;-45
2021/01/18 01:53:21;;;;;;;26.87;16.55;;;;;;;-3.27;48.86;101724.14;1762475;80;21605;-46
2021/01/18 01:55:51;;;;;;;25.17;15.25;;;;;;;-3.26;48.92;101728.44;1708033;84;21172;-45
2021/01/18 01:58:20;;;;;;;22.10;15.20;;;;;;;-3.30;49.16;101724.46;1703353;83;21212;-46
2021/01/18 02:00:48;;;;;;;23.75;15.35;;;;;;;-3.33;49.39;101720.52;1689279;85;21193;-46
2021/01/18 02:03:26;;;;;;;26.52;15.65;;;;;;;-3.33;49.40;101717.09;1772561;81;21160;-46
2021/01/18 02:06:08;;;;;;;24.90;16.62;;;;;;;-3.30;49.47;101720.64;1806577;78;23168;-44
2021/01/18 02:08:37;;;;;;;26.62;16.62;;;;;;;-3.32;49.61;101726.48;1694386;84;21317;-44
2021/01/18 02:11:06;;;;;;;29.15;16.15;;;;;;;-3.28;49.62;101731.31;1680152;84;21175;-45
2021/01/18 02:14:13;;;;;;;28.32;15.93;;;;;;;-3.27;49.68;101723.75;1691858;84;21190;-45
2021/01/18 02:17:02;;;;;;;28.38;17.00;;;;;;;-3.21;49.74;101727.02;1813379;79;22484;-45
2021/01/18 02:19:43;;;;;;;28.73;17.27;;;;;;;-3.26;49.71;101733.14;1799997;78;21151;-45
2021/01/18 02:22:35;;;;;;;29.42;17.25;;;;;;;-3.26;49.95;101730.99;1748012;81;21136;-44
2021/01/18 02:25:37;;;;;;;29.90;17.95;;;;;;;-3.25;50.09;101726.36;1756365;81;21298;-45
2021/01/18 02:28:41;;;;;;;29.55;17.05;;;;;;;-3.25;50.19;101732.72;1745315;82;21165;-44
2021/01/18 02:31:32;;;;;;;29.48;16.60;;;;;;;-3.27;50.36;101729.23;1763338;81;21321;-44
2021/01/18 02:34:44;;;;;;;29.63;17.12;;;;;;;-3.28;50.57;101728.77;1757900;81;21191;-44
2021/01/18 02:37:20;;;;;;;32.23;17.30;;;;;;;-3.31;50.67;101735.45;1756731;81;21113;-45
2021/01/18 02:40:08;;;;;;;29.20;17.32;;;;;;;-3.34;51.05;101727.66;1753115;81;21120;-44
2021/01/18 02:42:46;;;;;;;28.07;17.10;;;;;;;-3.34;51.54;101723.84;1752917;81;21208;-45
2021/01/18 02:45:15;;;;;;;26.68;16.90;;;;;;;-3.34;51.35;101722.56;1777376;80;21124;-44
2021/01/18 02:47:44;;;;;;;27.52;16.82;;;;;;;-3.34;51.46;101728.92;1773209;81;21136;-45
2021/01/18 02:50:12;;;;;;;28.52;17.02;;;;;;;-3.33;51.61;101728.14;1766458;81;21584;-45
2021/01/18 02:52:42;;;;;;;28.17;17.92;;;;;;;-3.33;51.63;101732.36;1760494;81;21568;-45
2021/01/18 02:55:11;;;;;;;32.33;17.70;;;;;;;-3.33;51.87;101728.14;1759527;81;21165;-45
2021/01/18 02:57:41;;;;;;;28.30;16.82;;;;;;;-3.33;51.99;101726.88;1762914;81;21151;-45
2021/01/18 03:00:15;;;;;;;28.07;17.45;;;;;;;-3.33;52.03;101729.42;1759803;81;21164;-45
2021/01/18 03:03:03;;;;;;;28.73;16.75;;;;;;;-3.32;52.21;101731.15;1763067;81;21160;-45
2021/01/18 03:05:48;;;;;;;30.55;19.37;;;;;;;-3.30;52.22;101731.25;1691419;84;21191;-44
2021/01/18 03:08:33;;;;;;;30.82;18.40;;;;;;;-3.26;52.42;101736.96;1816350;77;23036;-45
2021/01/18 03:11:12;;;;;;;27.55;17.62;;;;;;;-3.35;52.68;101736.11;1759656;81;21181;-45
2021/01/18 03:13:50;;;;;;;29.72;17.48;;;;;;;-3.38;52.93;101741.03;1757565;81;21191;-45
2021/01/18 03:16:23;;;;;;;30.75;17.50;;;;;;;-3.37;53.28;101742.80;1759211;81;21145;-44
2021/01/18 03:18:59;;;;;;;28.77;18.52;;;;;;;-3.30;53.45;101735.06;1821022;77;23063;-45
2021/01/18 03:21:27;;;;;;;27.48;18.17;;;;;;;-3.35;53.50;101737.38;1759761;81;21557;-45
2021/01/18 03:23:55;;;;;;;29.48;17.80;;;;;;;-3.32;53.65;101737.52;1770265;81;21583;-45
2021/01/18 03:29:01;;;;;;;29.60;18.37;;;;;;;-3.28;53.84;101738.56;1842226;77;22952;-45
2021/01/18 03:31:29;;;;;;;29.90;17.52;;;;;;;-3.34;53.83;101751.83;1823425;78;21211;-45
2021/01/18 03:33:57;;;;;;;30.17;18.90;;;;;;;-3.36;53.90;101750.88;1774102;80;21631;-45
2021/01/18 03:36:26;;;;;;;29.10;18.90;;;;;;;-3.36;54.11;101749.61;1774816;80;21322;-45
2021/01/18 03:38:54;;;;;;;30.05;18.40;;;;;;;-3.38;54.24;101749.94;1768362;80;22039;-45
2021/01/18 03:41:22;;;;;;;31.52;19.57;;;;;;;-3.38;54.39;101737.21;1766588;80;21341;-45
2021/01/18 03:43:50;;;;;;;29.40;18.92;;;;;;;-3.36;54.63;101743.25;1767633;80;21616;-45
2021/01/18 03:46:19;;;;;;;30.82;18.73;;;;;;;-3.33;54.65;101745.08;1767018;80;21393;-45
2021/01/18 03:48:48;;;;;;;34.40;19.25;;;;;;;-3.30;54.55;101757.55;1771109;80;21149;-45
2021/01/18 03:51:16;;;;;;;34.85;20.40;;;;;;;-3.30;54.61;101756.27;1768860;80;21169;-45
2021/01/18 03:53:44;;;;;;;35.08;20.80;;;;;;;-3.26;54.67;101761.53;1768018;80;21224;-45
2021/01/18 03:56:12;;;;;;;35.48;21.10;;;;;;;-3.27;54.83;101763.58;1769946;80;21148;-45
2021/01/18 03:58:41;;;;;;;33.95;20.43;;;;;;;-3.27;54.92;101761.04;1770399;80;21160;-45
2021/01/18 04:01:10;;;;;;;34.45;20.48;;;;;;;-3.27;55.00;101772.49;1771216;80;21157;-45
2021/01/18 04:03:38;;;;;;;35.92;20.97;;;;;;;-3.27;55.09;101769.95;1771139;80;21152;-45
2021/01/18 04:06:06;;;;;;;36.28;21.35;;;;;;;-3.27;55.20;101769.95;1742396;80;21192;-45
2021/01/18 04:08:35;;;;;;;34.53;20.23;;;;;;;-3.30;55.36;101769.00;1714752;83;21152;-45
2021/01/18 04:11:03;;;;;;;35.75;20.50;;;;;;;-3.27;55.59;101768.67;1708701;83;21172;-45
2021/01/18 04:13:32;;;;;;;33.25;20.85;;;;;;;-3.26;55.62;101772.98;1708795;83;21184;-45
2021/01/18 04:16:01;;;;;;;35.08;19.65;;;;;;;-3.25;55.70;101767.08;1706112;83;21196;-46
2021/01/18 04:18:29;;;;;;;29.37;18.07;;;;;;;-3.24;55.79;101767.57;1710628;83;21565;-46
2021/01/18 04:20:57;;;;;;;30.23;18.98;;;;;;;-3.23;55.88;101768.02;1709359;83;21589;-45
2021/01/18 04:23:26;;;;;;;28.38;18.37;;;;;;;-3.22;55.94;101773.61;1704932;83;21164;-46
2021/01/18 04:25:54;;;;;;;40.58;24.18;;;;;;;-3.19;56.10;101781.41;1706785;83;21196;-45
2021/01/18 04:28:23;;;;;;;32.28;19.62;;;;;;;-3.16;56.17;101784.09;1712766;83;21129;-45
2021/01/18 04:30:52;;;;;;;35.28;20.60;;;;;;;-3.14;56.27;101783.38;1711493;83;21124;-45
2021/01/18 04:33:22;;;;;;;28.27;19.05;;;;;;;-3.12;56.37;101784.72;1704062;83;21302;-46
2021/01/18 04:35:50;;;;;;;33.78;19.82;;;;;;;-3.09;56.48;101786.16;1689792;83;21338;-46
2021/01/18 04:38:19;;;;;;;30.10;19.92;;;;;;;-3.07;56.52;101787.10;1708989;83;21177;-46
2021/01/18 04:40:48;;;;;;;31.70;19.17;;;;;;;-3.04;56.53;101793.59;1709653;83;21212;-45
2021/01/18 04:43:16;;;;;;;30.20;17.32;;;;;;;-3.04;56.54;101792.33;1707825;83;21171;-45
2021/01/18 04:45:45;;;;;;;29.30;17.02;;;;;;;-3.05;56.13;101794.41;1709546;83;21212;-45
2021/01/18 04:48:13;;;;;;;26.95;17.20;;;;;;;-3.16;56.18;101796.81;1711136;83;21720;-46
2021/01/18 04:50:42;;;;;;;27.73;16.85;;;;;;;-3.21;56.28;101798.28;1711103;83;21167;-46
2021/01/18 04:53:16;;;;;;;26.35;15.85;;;;;;;-3.28;55.69;101802.58;1709761;83;21153;-46
2021/01/18 04:56:05;;;;;;;24.92;16.67;;;;;;;-3.40;55.80;101804.97;1702197;83;21160;-46
2021/01/18 04:58:34;;;;;;;25.57;16.50;;;;;;;-3.44;55.75;101805.61;1638879;86;21628;-45
2021/01/18 05:01:04;;;;;;;27.70;18.15;;;;;;;-3.43;55.78;101812.46;1636205;86;21298;-45
2021/01/18 05:03:36;;;;;;;33.55;19.75;;;;;;;-3.38;55.87;101818.64;1647692;86;21168;-45
2021/01/18 05:06:21;;;;;;;30.32;19.23;;;;;;;-3.35;55.91;101814.99;1647851;86;21171;-45
2021/01/18 05:09:20;;;;;;;30.60;18.48;;;;;;;-3.30;55.84;101807.17;1647538;86;21313;-44
2021/01/18 05:11:51;;;;;;;30.52;18.82;;;;;;;-3.25;55.74;101816.70;1641701;86;21176;-46
2021/01/18 05:14:19;;;;;;;31.25;19.20;;;;;;;-3.23;55.63;101810.02;1647598;86;21160;-46
2021/01/18 05:16:53;;;;;;;27.05;17.80;;;;;;;-3.24;55.59;101817.20;1650388;86;21169;-46
2021/01/18 05:19:23;;;;;;;31.80;16.82;;;;;;;-3.23;55.60;101820.20;1645864;86;21613;-45
2021/01/18 05:21:52;;;;;;;27.60;17.92;;;;;;;-3.21;55.41;101827.55;1647746;86;21118;-45
2021/01/18 05:24:20;;;;;;;28.38;17.05;;;;;;;-3.21;55.08;101829.67;1646117;86;21157;-45
2021/01/18 05:27:05;;;;;;;25.95;15.38;;;;;;;-3.21;54.79;101827.55;1644757;86;21167;-46
2021/01/18 05:29:35;;;;;;;25.05;15.53;;;;;;;-3.22;54.51;101835.97;1633746;86;21184;-46
2021/01/18 05:32:07;;;;;;;25.43;15.88;;;;;;;-3.26;54.21;101840.42;1645106;86;21659;-46
2021/01/18 05:34:41;;;;;;;23.85;15.48;;;;;;;-3.26;53.86;101845.52;1767202;79;23554;-45
2021/01/18 05:37:09;;;;;;;21.95;14.28;;;;;;;-3.33;53.75;101857.93;1740337;82;21168;-45
2021/01/18 05:39:38;;;;;;;24.95;14.90;;;;;;;-3.31;53.59;101858.00;1741083;82;21101;-45
2021/01/18 05:42:19;;;;;;;24.25;14.87;;;;;;;-3.31;53.37;101863.97;1732125;82;21121;-45
2021/01/18 05:44:47;;;;;;;26.48;16.52;;;;;;;-3.30;53.04;101863.16;1709785;83;21223;-45
2021/01/18 05:47:16;;;;;;;27.22;15.28;;;;;;;-3.34;53.03;101868.89;1716321;83;21163;-45
2021/01/18 05:49:49;;;;;;;25.30;16.07;;;;;;;-3.35;53.03;101870.09;1716713;83;21175;-45
2021/01/18 05:52:32;;;;;;;24.32;15.18;;;;;;;-3.41;52.62;101875.75;1727315;83;21152;-44
2021/01/18 05:55:30;;;;;;;25.77;15.15;;;;;;;-3.43;52.79;101876.07;1711075;83;21173;-44
2021/01/18 05:58:01;;;;;;;26.82;17.35;;;;;;;-3.43;52.56;101881.16;1717254;83;21302;-45
2021/01/18 06:00:33;;;;;;;24.20;14.47;;;;;;;-3.49;52.22;101877.02;1713258;83;21187;-45
2021/01/18 06:03:12;;;;;;;26.90;17.05;;;;;;;-3.59;51.87;101874.80;1717758;83;22606;-44
2021/01/18 06:05:41;;;;;;;31.30;17.62;;;;;;;-3.88;52.06;101888.02;1728553;83;21195;-44
2021/01/18 06:08:19;;;;;;;33.25;18.77;;;;;;;-4.12;52.44;101885.01;1718463;83;21195;-47
2021/01/18 06:10:49;;;;;;;29.85;18.32;;;;;;;-4.20;52.96;101891.34;1722925;83;21163;-46
2021/01/18 06:13:21;;;;;;;26.65;17.00;;;;;;;-4.15;53.18;101886.12;1716280;83;21168;-46
2021/01/18 06:16:09;;;;;;;29.32;18.20;;;;;;;-4.03;52.95;101884.64;1817342;79;22881;-45
2021/01/18 06:18:39;;;;;;;28.05;17.40;;;;;;;-4.05;52.70;101896.00;1783596;80;21120;-45
2021/01/18 06:21:09;;;;;;;30.37;17.27;;;;;;;-4.08;52.53;101898.36;1778454;80;21140;-46
2021/01/18 06:23:39;;;;;;;29.52;17.05;;;;;;;-4.17;52.63;101897.48;1777108;80;21124;-46
2021/01/18 06:26:08;;;;;;;34.60;19.60;;;;;;;-4.15;52.64;101901.37;1748722;81;21134;-47
2021/01/18 06:28:37;;;;;;;27.07;17.50;;;;;;;-4.18;52.47;101910.09;1717172;83;21182;-46
2021/01/18 06:31:12;;;;;;;29.12;17.50;;;;;;;-4.19;52.63;101911.77;1696734;84;21176;-46
2021/01/18 06:33:50;;;;;;;30.20;17.30;;;;;;;-4.15;52.64;101917.89;1714804;83;21151;-46
2021/01/18 06:36:24;;;;;;;33.28;18.17;;;;;;;-4.12;52.50;101911.69;1741560;81;21154;-46
2021/01/18 06:39:03;;;;;;;28.83;17.45;;;;;;;-4.16;52.36;101917.40;1725386;83;21184;-47
2021/01/18 06:41:37;;;;;;;28.67;16.55;;;;;;;-4.30;52.48;101923.00;1699821;84;21220;-46
2021/01/18 06:44:06;;;;;;;30.45;18.75;;;;;;;-4.46;52.84;101929.67;1691080;84;21215;-44
2021/01/18 06:46:37;;;;;;;28.57;17.87;;;;;;;-4.50;53.12;101932.83;1684423;84;21179;-44
2021/01/18 06:49:10;;;;;;;31.10;21.33;;;;;;;-4.51;53.31;101931.05;1796602;77;28312;-45
2021/01/18 06:51:39;;;;;;;34.63;17.90;;;;;;;-4.50;53.40;101931.17;1758727;81;21270;-44
2021/01/18 06:54:08;;;;;;;34.27;21.15;;;;;;;-4.37;53.43;101927.66;1762992;81;21305;-45
2021/01/18 06:56:41;;;;;;;32.48;20.08;;;;;;;-4.27;53.40;101922.30;1760424;81;21147;-45
2021/01/18 06:59:48;;;;;;;30.55;17.80;;;;;;;-4.17;53.21;101929.64;1757274;81;21156;-45
2021/01/18 07:02:23;;;;;;;33.78;18.12;;;;;;;-4.17;52.93;101929.64;1759810;81;21140;-46
2021/01/18 07:04:52;;;;;;;34.95;20.17;;;;;;;-4.21;52.92;101928.61;1770124;81;21219;-46
2021/01/18 07:07:29;;;;;;;34.43;19.12;;;;;;;-4.26;53.01;101934.20;1759824;81;21299;-45
2021/01/18 07:10:10;;;;;;;31.70;18.10;;;;;;;-4.40;53.04;101932.55;1761295;81;21164;-46
2021/01/18 07:12:38;;;;;;;33.18;18.32;;;;;;;-4.58;53.25;101941.67;1761409;81;21168;-46
2021/01/18 07:15:11;;;;;;;24.85;15.05;;;;;;;-4.65;53.65;101954.79;1761325;81;21147;-46
2021/01/18 07:17:54;;;;;;;28.42;17.02;;;;;;;-4.75;53.49;101953.39;1754041;81;21169;-47
2021/01/18 07:20:28;;;;;;;29.87;16.50;;;;;;;-4.87;53.85;101955.22;1761856;81;21152;-46
2021/01/18 07:23:10;;;;;;;29.25;16.32;;;;;;;-4.88;54.19;101958.52;1749917;81;21624;-44
2021/01/18 07:25:44;;;;;;;29.07;15.13;;;;;;;-4.87;54.07;101956.88;1752906;81;21184;-46
2021/01/18 07:28:20;;;;;;;22.62;11.73;;;;;;;-4.90;54.09;101951.63;1654494;85;21227;-47
2021/01/18 07:30:51;;;;;;;24.47;14.70;;;;;;;-4.89;53.80;101967.33;1660574;85;21228;-46
2021/01/18 07:33:20;;;;;;;25.80;13.98;;;;;;;-5.05;53.72;101967.67;1662849;85;21329;-46
2021/01/18 07:35:50;;;;;;;24.80;13.45;;;;;;;-5.30;54.01;101960.67;1665814;85;21219;-46
2021/01/18 07:38:21;;;;;;;27.50;14.73;;;;;;;-5.54;54.71;101957.89;1646891;85;21179;-47
2021/01/18 07:41:12;;;;;;;22.05;13.53;;;;;;;-5.69;55.09;101964.57;1667075;85;21167;-46
2021/01/18 07:43:48;;;;;;;22.87;14.85;;;;;;;-5.83;55.47;101965.34;1658688;85;21592;-44
2021/01/18 07:46:35;;;;;;;23.67;14.38;;;;;;;-5.91;55.56;101958.95;1810918;77;23054;-45
2021/01/18 07:49:33;;;;;;;27.27;14.07;;;;;;;-6.01;55.91;101969.30;1816228;78;21171;-45
2021/01/18 07:52:26;;;;;;;29.05;15.28;;;;;;;-6.06;56.15;101975.74;1722887;82;21341;-45
2021/01/18 07:54:56;;;;;;;20.92;13.08;;;;;;;-6.12;56.66;101979.16;1722308;82;21648;-46
2021/01/18 07:57:32;;;;;;;20.35;13.08;;;;;;;-6.14;56.63;101980.30;1722286;82;21168;-45
2021/01/18 08:00:26;;;;;;;24.25;13.50;;;;;;;-6.10;56.51;101976.33;1725463;82;21145;-45
2021/01/18 08:03:12;;;;;;;20.82;12.55;;;;;;;-6.16;56.18;101978.47;1731471;82;21599;-45
2021/01/18 08:05:45;;;;;;;29.57;16.35;;;;;;;-6.25;56.07;101969.89;1793303;79;22983;-45
2021/01/18 08:08:18;;;;;;;28.02;17.02;;;;;;;-6.36;56.66;101987.30;1774661;80;21144;-46
2021/01/18 08:11:05;;;;;;;30.35;16.10;;;;;;;-6.32;56.82;101987.10;1783969;80;21640;-46
2021/01/18 08:13:42;;;;;;;23.87;12.95;;;;;;;-6.28;56.97;101980.19;1769639;80;21151;-45
2021/01/18 08:16:19;;;;;;;26.17;14.35;;;;;;;-6.29;57.34;101975.92;1766039;80;21148;-45
2021/01/18 08:19:05;;;;;;;25.17;14.55;;;;;;;-6.26;57.37;101988.77;1779816;80;21687;-45
2021/01/18 08:21:45;;;;;;;26.27;13.70;;;;;;;-6.19;57.39;101985.86;1779550;80;21168;-46
2021/01/18 08:24:24;;;;;;;23.40;13.80;;;;;;;-6.09;57.48;101998.33;1721543;83;21218;-45
2021/01/18 08:27:04;;;;;;;24.65;13.10;;;;;;;-6.08;57.63;102002.64;1716653;83;21178;-46
2021/01/18 08:29:53;;;;;;;20.10;12.55;;;;;;;-6.07;57.03;102015.39;1716526;83;21192;-45
2021/01/18 08:32:30;;;;;;;23.80;13.40;;;;;;;-6.09;56.71;102013.53;1690653;84;21183;-45
2021/01/18 08:35:01;;;;;;;28.32;15.80;;;;;;;-6.18;56.75;102011.69;1717984;82;21617;-45
2021/01/18 08:37:30;;;;;;;24.00;14.28;;;;;;;-6.24;56.64;102012.53;1671026;84;21200;-45
2021/01/18 08:40:06;;;;;;;22.50;14.40;;;;;;;-6.30;56.74;102015.55;1712334;81;21152;-45
2021/01/18 08:42:41;;;;;;;19.87;13.18;;;;;;;-6.29;57.14;102013.91;1811228;77;22787;-45
2021/01/18 08:45:22;;;;;;;22.93;12.73;;;;;;;-6.31;57.37;102021.80;1759435;81;21140;-45
2021/01/18 08:47:59;;;;;;;22.27;12.75;;;;;;;-6.24;57.46;102010.00;1757905;81;21730;-45
2021/01/18 08:50:36;;;;;;;22.48;13.85;;;;;;;-6.20;57.12;102017.05;1753083;81;21605;-45
2021/01/18 08:53:43;;;;;;;23.30;13.28;;;;;;;-6.22;57.19;102016.92;1759785;81;21163;-44
2021/01/18 08:56:29;;;;;;;21.95;12.82;;;;;;;-6.22;57.36;102015.66;1761148;81;21152;-45
2021/01/18 08:58:58;;;;;;;24.63;14.00;;;;;;;-6.20;57.43;102009.45;1758176;81;21140;-44
2021/01/18 09:01:30;;;;;;;22.87;12.70;;;;;;;-6.15;57.21;102008.08;1753532;81;21141;-44
2021/01/18 09:04:05;;;;;;;22.35;12.95;;;;;;;-6.11;57.23;101998.63;1745187;81;21160;-46
2021/01/18 09:06:34;;;;;;;19.87;11.28;;;;;;;-6.05;57.14;101992.68;1756995;81;21199;-44
2021/01/18 09:09:08;;;;;;;28.02;15.60;;;;;;;-6.00;57.36;101998.94;1758543;81;21172;-44
2021/01/18 09:11:39;;;;;;;19.10;11.75;;;;;;;-5.95;57.14;102002.63;1759218;81;21157;-44
2021/01/18 09:14:08;;;;;;;24.20;14.23;;;;;;;-5.97;57.08;101997.84;1765142;81;21147;-44
2021/01/18 09:16:41;;;;;;;24.67;14.00;;;;;;;-6.01;56.82;101994.62;1736506;81;21148;-46
2021/01/18 09:19:09;;;;;;;24.77;14.18;;;;;;;-6.02;56.78;101992.48;1756366;81;21137;-44
2021/01/18 09:21:38;;;;;;;23.35;14.05;;;;;;;-5.99;56.84;101993.07;1762608;81;21173;-45
2021/01/18 09:24:07;;;;;;;29.27;14.85;;;;;;;-5.97;56.47;101988.97;1762584;81;21151;-46
2021/01/18 09:26:36;;;;;;;24.77;14.60;;;;;;;-5.93;56.51;101985.47;1754713;81;21148;-44
2021/01/18 09:29:04;;;;;;;20.80;12.98;;;;;;;-5.89;56.56;101982.73;1748433;81;21140;-44
2021/01/18 09:31:33;;;;;;;25.75;13.43;;;;;;;-5.85;57.16;101984.67;1748989;81;21283;-44
2021/01/18 09:34:12;;;;;;;24.25;13.15;;;;;;;-5.79;57.39;101991.40;1762302;81;21171;-44
2021/01/18 09:36:43;;;;;;;22.60;13.13;;;;;;;-5.66;57.07;101989.20;1752738;81;21574;-46
2021/01/18 09:39:20;;;;;;;20.12;12.73;;;;;;;-5.59;56.75;101992.24;1754538;81;21261;-44
2021/01/18 09:41:54;;;;;;;21.57;14.58;;;;;;;-5.50;56.63;101985.19;1749652;81;21204;-46
2021/01/18 09:44:23;;;;;;;25.65;14.05;;;;;;;-5.42;56.35;101990.33;1752625;82;21126;-45
2021/01/18 09:46:52;;;;;;;21.30;12.33;;;;;;;-5.36;56.49;101988.59;1802598;79;21124;-44
2021/01/18 09:49:29;;;;;;;21.70;14.03;;;;;;;-5.24;56.34;101999.09;1805689;79;21138;-44
2021/01/18 09:51:58;;;;;;;26.70;14.95;;;;;;;-5.15;56.14;101995.83;1776851;79;21127;-46
2021/01/18 09:54:27;;;;;;;19.75;12.23;;;;;;;-5.09;55.68;101997.47;1800436;79;21632;-45
2021/01/18 09:56:55;;;;;;;23.20;13.22;;;;;;;-5.03;55.12;102001.64;1795425;79;21572;-45
2021/01/18 09:59:24;;;;;;;22.35;13.05;;;;;;;-5.02;55.33;102002.52;1799948;79;21282;-47
2021/01/18 10:01:53;;;;;;;26.62;14.28;;;;;;;-5.06;54.99;102007.81;1800277;79;21152;-46
2021/01/18 10:04:23;;;;;;;23.70;13.95;;;;;;;-5.14;55.15;101995.06;1804364;79;21556;-46
2021/01/18 10:06:54;;;;;;;24.15;13.10;;;;;;;-5.22;55.67;102000.06;1803552;79;21156;-46
2021/01/18 10:09:24;;;;;;;22.98;13.72;;;;;;;-5.18;56.59;102003.27;1800478;79;21710;-46
2021/01/18 10:11:58;;;;;;;19.17;12.68;;;;;;;-5.10;56.35;102004.61;1737381;82;21159;-46
2021/01/18 10:14:28;;;;;;;20.02;13.03;;;;;;;-5.09;56.71;102006.34;1783096;79;21560;-45
2021/01/18 10:17:08;;;;;;;19.05;12.75;;;;;;;-5.09;56.17;102010.57;1798927;79;21168;-45
2021/01/18 10:19:38;;;;;;;21.68;10.90;;;;;;;-5.22;55.82;102010.59;1805295;79;21125;-45
2021/01/18 10:22:16;;;;;;;20.95;11.18;;;;;;;-5.38;56.15;102011.30;1797267;79;21144;-45
2021/01/18 10:24:55;;;;;;;19.73;11.95;;;;;;;-5.45;56.30;102018.06;1798369;79;21132;-45
2021/01/18 10:27:28;;;;;;;20.32;11.08;;;;;;;-5.56;56.55;102019.05;1812332;79;21541;-46
2021/01/18 10:30:14;;;;;;;20.27;12.47;;;;;;;-5.67;57.24;102021.31;1806018;79;21558;-45
2021/01/18 10:32:44;;;;;;;22.37;12.65;;;;;;;-5.68;57.47;102014.47;1808805;78;21113;-46
2021/01/18 10:35:32;;;;;;;17.85;10.95;;;;;;;-5.57;57.69;102016.04;1809834;79;21136;-46
2021/01/18 10:38:17;;;;;;;19.87;12.20;;;;;;;-5.44;57.71;102022.34;1735129;82;21242;-45
2021/01/18 10:41:04;;;;;;;22.98;11.90;;;;;;;-5.28;57.21;102022.91;1723627;82;21171;-45
2021/01/18 10:43:34;;;;;;;27.25;14.03;;;;;;;-5.18;56.86;102018.50;1713023;83;21595;-45
2021/01/18 10:46:03;;;;;;;18.07;11.18;;;;;;;-5.15;56.74;102016.13;1734670;82;21234;-45
2021/01/18 10:48:33;;;;;;;18.62;11.90;;;;;;;-5.12;56.25;102023.94;1719541;83;21394;-45
2021/01/18 10:51:03;;;;;;;21.35;12.98;;;;;;;-5.16;55.64;102015.66;1723227;82;21140;-45
2021/01/18 10:53:33;;;;;;;22.62;13.72;;;;;;;-5.21;55.44;102015.75;1709839;83;21558;-46
2021/01/18 10:56:16;;;;;;;20.08;11.95;;;;;;;-5.24;55.44;102009.25;1732219;82;21215;-45
2021/01/18 10:58:49;;;;;;;30.75;13.38;;;;;;;-5.29;55.12;102015.69;1723228;82;21214;-46
2021/01/18 11:01:25;;;;;;;18.55;12.05;;;;;;;-5.35;54.96;102017.84;1841682;77;22949;-45
2021/01/18 11:03:54;;;;;;;21.57;11.90;;;;;;;-5.38;55.21;102018.91;1765877;81;21276;-46
2021/01/18 11:06:22;;;;;;;23.12;12.53;;;;;;;-5.28;55.49;102025.45;1749582;81;21670;-45
2021/01/18 11:08:54;;;;;;;19.07;12.15;;;;;;;-5.11;55.19;102015.53;1756739;81;21348;-45
2021/01/18 11:11:25;;;;;;;22.22;13.32;;;;;;;-4.95;54.98;102020.73;1678838;84;21642;-45
2021/01/18 11:14:05;;;;;;;22.30;14.03;;;;;;;-4.84;54.79;102017.99;1726165;83;21131;-45
2021/01/18 11:16:39;;;;;;;27.65;14.23;;;;;;;-4.70;54.67;102020.57;1852218;77;23069;-45
2021/01/18 11:19:08;;;;;;;24.60;13.22;;;;;;;-4.62;54.38;102023.55;1753093;81;21570;-45
2021/01/18 11:21:36;;;;;;;23.15;13.80;;;;;;;-4.49;54.19;102017.14;1763022;81;21183;-45
2021/01/18 11:24:07;;;;;;;24.12;13.30;;;;;;;-4.38;53.84;102009.73;1758623;81;21176;-44
2021/01/18 11:26:35;;;;;;;23.10;13.22;;;;;;;-4.27;53.60;102008.69;1758410;81;21286;-45
2021/01/18 11:29:03;;;;;;;25.82;13.95;;;;;;;-4.15;53.13;102004.30;1759751;81;21155;-45
2021/01/18 11:31:32;;;;;;;24.32;14.83;;;;;;;-4.04;52.87;101999.45;1763205;81;21152;-45
2021/01/18 11:34:02;;;;;;;24.65;13.10;;;;;;;-3.98;52.63;102001.06;1759556;81;21160;-45
2021/01/18 11:36:30;;;;;;;26.37;14.68;;;;;;;-3.99;52.19;101998.02;1756154;81;21302;-45
2021/01/18 11:38:58;;;;;;;26.33;14.47;;;;;;;-3.96;52.48;101998.59;1759663;81;21156;-45
2021/01/18 11:41:27;;;;;;;36.33;13.90;;;;;;;-3.84;52.37;102007.78;1761496;81;21188;-45